Time;durP1;ratioP1;P1;durP2;ratioP2;P2;SDS_P1;SDS_P2;PMS_P1;PMS_P2;Temp;Humidity;BMP_temperature;BMP_pressure;BME280_temperature;BME280_humidity;BME280_pressure;Samples;Min_cycle;Max_cycle;Signal;HPM_P1;HPM_P2
2022/01/05 00:01:38;;;;;;;10.60;2.53;;;2.00;99.90;;;;;;6337335;22;20047;-96
2022/01/05 00:04:03;;;;;;;5.45;1.40;;;2.00;99.90;;;;;;6313898;22;20022;-96
2022/01/05 00:06:29;;;;;;;10.02;1.90;;;1.90;99.90;;;;;;6310966;22;20019;-96
2022/01/05 00:08:56;;;;;;;9.52;1.83;;;2.00;99.90;;;;;;6313168;22;20063;-96
2022/01/05 00:11:23;;;;;;;10.20;2.38;;;2.00;99.90;;;;;;6337563;22;19999;-96
2022/01/05 00:13:49;;;;;;;9.40;2.35;;;2.10;99.90;;;;;;6303834;22;20021;-96
2022/01/05 00:16:14;;;;;;;10.55;2.05;;;2.10;99.90;;;;;;6292758;22;20018;-94
2022/01/05 00:18:40;;;;;;;9.48;1.63;;;2.20;99.90;;;;;;6311270;22;20010;-95
2022/01/05 00:21:05;;;;;;;6.07;1.50;;;2.30;99.90;;;;;;6313141;22;20014;-96
2022/01/05 00:23:31;;;;;;;6.28;1.50;;;2.40;99.90;;;;;;6288972;22;20017;-96
2022/01/05 00:25:59;;;;;;;9.88;1.70;;;2.50;99.90;;;;;;6285174;22;20022;-95
2022/01/05 00:28:25;;;;;;;7.80;1.50;;;2.50;99.90;;;;;;6291689;22;20019;-96
2022/01/05 00:30:53;;;;;;;7.75;1.23;;;2.50;99.90;;;;;;6332514;22;20042;-96
2022/01/05 00:33:19;;;;;;;7.40;1.50;;;2.60;99.90;;;;;;6331667;22;20060;-96
2022/01/05 00:35:44;;;;;;;8.23;1.40;;;2.60;99.90;;;;;;6302153;22;20101;-96
2022/01/05 00:38:10;;;;;;;6.57;1.58;;;2.60;99.90;;;;;;6305056;22;20007;-96
2022/01/05 00:40:36;;;;;;;7.25;1.25;;;2.60;99.90;;;;;;6304496;22;20385;-96
2022/01/05 00:43:02;;;;;;;4.75;1.15;;;2.50;99.90;;;;;;6301001;22;20011;-96
2022/01/05 00:45:28;;;;;;;8.77;1.35;;;2.50;99.90;;;;;;6300835;22;20478;-96
2022/01/05 00:47:53;;;;;;;7.45;1.25;;;2.50;99.90;;;;;;6301565;22;20088;-96
2022/01/05 00:50:19;;;;;;;10.50;1.65;;;2.40;99.90;;;;;;6327139;22;20013;-96
2022/01/05 00:52:45;;;;;;;7.03;1.15;;;2.40;99.90;;;;;;6299089;22;20122;-96
2022/01/05 00:55:11;;;;;;;6.43;1.30;;;2.40;99.90;;;;;;6274114;22;20029;-96
2022/01/05 00:57:37;;;;;;;5.68;1.13;;;2.30;99.90;;;;;;6282492;22;20015;-96
2022/01/05 01:00:05;;;;;;;6.07;1.25;;;2.40;99.90;;;;;;6285467;22;20026;-96
2022/01/05 01:02:30;;;;;;;9.98;1.50;;;2.40;99.90;;;;;;6278672;22;20051;-96
2022/01/05 01:04:56;;;;;;;9.20;2.17;;;2.40;99.90;;;;;;6283535;22;20007;-97
2022/01/05 01:07:22;;;;;;;7.30;1.38;;;2.30;99.90;;;;;;6304482;22;20019;-96
2022/01/05 01:09:48;;;;;;;7.75;1.77;;;2.30;99.90;;;;;;6276282;22;20067;-96
2022/01/05 01:12:13;;;;;;;7.53;1.83;;;2.30;99.90;;;;;;6306284;22;20014;-96
2022/01/05 01:14:39;;;;;;;8.60;1.30;;;2.30;99.90;;;;;;6297796;22;20030;-96
2022/01/05 01:17:05;;;;;;;6.78;1.20;;;2.30;99.90;;;;;;6267672;22;20451;-96
2022/01/05 01:19:31;;;;;;;6.45;1.17;;;2.20;99.90;;;;;;6294265;22;20022;-96
2022/01/05 01:21:58;;;;;;;9.02;1.42;;;2.30;99.90;;;;;;6267884;22;20015;-96
2022/01/05 01:24:24;;;;;;;9.57;1.75;;;2.30;99.90;;;;;;6266875;22;20022;-95
2022/01/05 01:26:50;;;;;;;6.68;1.42;;;2.30;99.90;;;;;;6265630;22;20045;-96
2022/01/05 01:29:15;;;;;;;7.75;1.38;;;2.40;99.90;;;;;;6269480;22;19999;-95
2022/01/05 01:31:41;;;;;;;9.32;1.42;;;2.40;99.90;;;;;;6295716;22;20023;-96
2022/01/05 01:34:07;;;;;;;9.45;1.30;;;2.50;99.90;;;;;;6270676;22;20015;-96
2022/01/05 01:36:33;;;;;;;9.45;1.45;;;2.50;99.90;;;;;;6268232;22;20348;-96
2022/01/05 01:38:59;;;;;;;5.63;1.48;;;2.50;99.90;;;;;;6271466;22;20034;-96
2022/01/05 01:41:25;;;;;;;8.25;2.17;;;2.50;99.90;;;;;;6281382;22;20016;-96
2022/01/05 01:43:51;;;;;;;10.98;1.60;;;2.40;99.90;;;;;;6295231;22;20045;-96
2022/01/05 01:46:18;;;;;;;6.90;1.30;;;2.40;99.90;;;;;;6292431;22;20281;-96
2022/01/05 01:48:43;;;;;;;8.95;1.42;;;2.40;99.90;;;;;;6268211;22;20046;-96
2022/01/05 01:51:09;;;;;;;7.22;1.30;;;2.30;99.90;;;;;;6262657;22;20069;-96
2022/01/05 01:53:35;;;;;;;8.65;1.30;;;2.40;99.90;;;;;;6285369;22;20019;-96
2022/01/05 01:56:02;;;;;;;8.90;1.42;;;2.30;99.90;;;;;;6290344;22;20138;-96
2022/01/05 01:58:32;;;;;;;6.97;1.60;;;2.20;99.90;;;;;;6291619;22;20026;-95
2022/01/05 02:00:58;;;;;;;5.90;1.00;;;2.20;99.90;;;;;;6292887;22;20007;-96
2022/01/05 02:03:24;;;;;;;10.60;1.67;;;2.20;99.90;;;;;;6297502;22;20049;-96
2022/01/05 02:05:49;;;;;;;5.93;1.30;;;2.20;99.90;;;;;;6269523;22;20533;-96
2022/01/05 02:08:15;;;;;;;8.75;1.35;;;2.10;99.90;;;;;;6300920;22;20015;-96
2022/01/05 02:10:43;;;;;;;9.82;1.50;;;2.10;99.90;;;;;;6297403;22;20016;-96
2022/01/05 02:13:09;;;;;;;6.90;1.35;;;2.20;99.90;;;;;;6273960;22;20021;-96
2022/01/05 02:15:35;;;;;;;8.52;1.67;;;2.10;99.90;;;;;;6306857;22;20019;-96
2022/01/05 02:20:28;;;;;;;10.95;1.80;;;2.20;99.90;;;;;;6301538;22;20058;-96
2022/01/05 02:22:58;;;;;;;8.10;1.58;;;2.20;99.90;;;;;;6305697;22;20067;-96
2022/01/05 02:25:24;;;;;;;9.05;1.75;;;2.20;99.90;;;;;;6279101;22;20053;-96
2022/01/05 02:27:53;;;;;;;11.63;2.13;;;2.30;99.90;;;;;;6305939;22;20042;-96
2022/01/05 02:33:00;;;;;;;11.25;1.65;;;2.30;99.90;;;;;;6310776;22;20028;-96
2022/01/05 02:35:26;;;;;;;7.10;1.60;;;2.20;99.90;;;;;;6299627;22;20019;-96
2022/01/05 02:37:55;;;;;;;11.07;1.95;;;2.30;99.90;;;;;;6296531;22;20016;-96
2022/01/05 02:40:22;;;;;;;8.73;1.70;;;2.30;99.90;;;;;;6299208;22;20147;-94
2022/01/05 02:42:48;;;;;;;7.57;1.83;;;2.30;99.90;;;;;;6272770;22;20011;-96
2022/01/05 02:45:15;;;;;;;8.63;1.42;;;2.40;99.90;;;;;;6300867;22;20051;-95
2022/01/05 02:47:42;;;;;;;10.35;2.47;;;2.40;99.90;;;;;;6298144;22;20015;-96
2022/01/05 02:50:11;;;;;;;10.82;1.58;;;2.50;99.90;;;;;;6296852;22;19999;-96
2022/01/05 02:52:37;;;;;;;9.00;1.40;;;2.50;99.90;;;;;;6294759;22;20021;-96
2022/01/05 02:55:03;;;;;;;11.30;1.95;;;2.50;99.90;;;;;;6293943;22;20016;-96
2022/01/05 02:57:30;;;;;;;11.77;2.00;;;2.60;99.90;;;;;;6279165;22;20027;-96
2022/01/05 02:59:56;;;;;;;8.13;1.50;;;2.60;99.90;;;;;;6288989;22;20022;-96
2022/01/05 03:02:25;;;;;;;11.38;2.13;;;2.60;99.90;;;;;;6278958;22;20045;-95
2022/01/05 03:04:51;;;;;;;12.57;3.30;;;2.60;99.90;;;;;;6300353;22;20015;-96
2022/01/05 03:07:17;;;;;;;10.10;1.65;;;2.60;99.90;;;;;;6273362;22;20019;-95
2022/01/05 03:09:43;;;;;;;9.90;1.88;;;2.70;99.90;;;;;;6290541;22;20077;-95
2022/01/05 03:12:11;;;;;;;13.85;2.10;;;2.70;99.90;;;;;;6292899;22;20015;-95
2022/01/05 03:14:37;;;;;;;14.20;2.03;;;2.80;99.90;;;;;;6269997;22;20026;-96
2022/01/05 03:17:03;;;;;;;12.82;2.05;;;2.80;99.90;;;;;;6265847;22;20015;-95
2022/01/05 03:19:29;;;;;;;8.02;1.67;;;2.80;99.90;;;;;;6266514;22;20018;-96
2022/01/05 03:21:54;;;;;;;10.02;1.65;;;2.80;99.90;;;;;;6290113;22;20019;-96
2022/01/05 03:24:23;;;;;;;10.57;1.58;;;2.90;99.90;;;;;;6259778;22;20474;-96
2022/01/05 03:26:49;;;;;;;13.63;2.42;;;2.90;99.90;;;;;;6317419;22;20023;-93
2022/01/05 03:29:14;;;;;;;15.70;2.35;;;2.90;99.90;;;;;;6260039;22;20019;-96
2022/01/05 03:31:40;;;;;;;9.43;2.17;;;3.00;99.90;;;;;;6289193;22;20015;-96
2022/01/05 03:34:06;;;;;;;10.50;1.80;;;3.00;99.90;;;;;;6271150;22;20030;-96
2022/01/05 03:36:32;;;;;;;13.55;2.35;;;3.10;99.90;;;;;;6298167;22;20315;-94
2022/01/05 03:38:58;;;;;;;15.77;2.78;;;3.10;99.90;;;;;;6270319;22;20018;-94
2022/01/05 03:41:27;;;;;;;12.43;1.92;;;3.00;99.90;;;;;;6292497;22;20019;-96
2022/01/05 03:43:52;;;;;;;14.90;2.20;;;3.00;99.90;;;;;;6296810;22;20042;-94
2022/01/05 03:46:18;;;;;;;12.27;2.35;;;3.00;99.90;;;;;;6278107;22;20059;-96
2022/01/05 03:48:43;;;;;;;11.32;2.25;;;3.00;99.90;;;;;;6309742;22;20015;-96
2022/01/05 03:51:09;;;;;;;7.88;1.85;;;3.10;99.90;;;;;;6300778;22;20019;-96
2022/01/05 03:53:35;;;;;;;10.13;2.20;;;3.00;99.90;;;;;;6283340;22;20062;-96
2022/01/05 03:56:02;;;;;;;12.77;2.53;;;3.00;99.90;;;;;;6303726;22;20014;-94
2022/01/05 03:58:27;;;;;;;11.95;1.80;;;3.00;99.90;;;;;;6270979;22;20033;-96
2022/01/05 04:00:53;;;;;;;10.52;2.13;;;3.00;99.90;;;;;;6269833;22;19999;-96
2022/01/05 04:03:19;;;;;;;13.20;2.30;;;3.10;99.90;;;;;;6270072;22;20508;-96
2022/01/05 04:05:45;;;;;;;10.32;2.20;;;3.10;99.90;;;;;;6267905;22;20069;-96
2022/01/05 04:08:11;;;;;;;16.40;2.08;;;3.30;99.90;;;;;;6287872;22;20045;-95
2022/01/05 04:10:37;;;;;;;16.48;2.35;;;3.20;99.90;;;;;;6294985;22;20019;-94
2022/01/05 04:13:03;;;;;;;7.88;2.22;;;3.20;99.90;;;;;;6267946;22;20027;-94
2022/01/05 04:15:29;;;;;;;14.05;2.45;;;3.30;99.90;;;;;;6291484;22;20016;-96
2022/01/05 04:17:55;;;;;;;9.15;2.08;;;3.30;99.90;;;;;;6295723;22;20034;-95
2022/01/05 04:20:20;;;;;;;13.13;2.22;;;3.30;99.90;;;;;;6264846;22;20019;-94
2022/01/05 04:22:46;;;;;;;10.48;2.28;;;3.30;99.90;;;;;;6290698;22;20019;-96
2022/01/05 04:25:13;;;;;;;11.63;1.95;;;3.30;99.90;;;;;;6264249;22;20019;-96
2022/01/05 04:27:40;;;;;;;10.00;1.70;;;3.30;99.90;;;;;;6316688;22;20011;-96
2022/01/05 04:30:07;;;;;;;12.07;2.30;;;3.30;99.90;;;;;;6268278;22;20148;-96
2022/01/05 04:32:34;;;;;;;16.05;2.58;;;3.40;99.90;;;;;;6258991;22;20011;-96
2022/01/05 04:35:00;;;;;;;15.73;2.40;;;3.50;99.90;;;;;;6259238;22;20051;-96
2022/01/05 04:37:26;;;;;;;8.82;2.20;;;3.60;99.90;;;;;;6295117;22;20050;-96
2022/01/05 04:39:52;;;;;;;8.75;1.83;;;3.70;99.90;;;;;;6266297;22;20003;-95
2022/01/05 04:42:18;;;;;;;11.50;1.83;;;3.70;99.90;;;;;;6266446;22;19995;-96
2022/01/05 04:44:44;;;;;;;10.75;1.88;;;3.80;99.90;;;;;;6264802;22;20019;-95
2022/01/05 04:47:11;;;;;;;9.93;1.98;;;3.80;99.90;;;;;;6270093;22;20015;-96
2022/01/05 04:49:36;;;;;;;12.88;2.20;;;3.80;99.90;;;;;;6265608;22;20075;-96
2022/01/05 04:52:02;;;;;;;10.32;1.83;;;3.70;99.90;;;;;;6267093;22;20045;-96
2022/01/05 04:54:31;;;;;;;10.45;1.80;;;3.70;99.90;;;;;;6293509;22;20019;-96
2022/01/05 04:56:57;;;;;;;9.40;1.80;;;3.70;99.90;;;;;;6268267;22;20019;-96
2022/01/05 04:59:22;;;;;;;8.63;1.42;;;3.70;99.90;;;;;;6260533;22;20051;-96
2022/01/05 05:01:48;;;;;;;6.60;1.80;;;3.70;99.90;;;;;;6239716;22;20015;-96
2022/01/05 05:04:14;;;;;;;12.07;2.20;;;3.70;99.90;;;;;;6263652;22;20019;-94
2022/01/05 05:06:40;;;;;;;11.38;2.38;;;3.70;99.90;;;;;;6232206;22;20076;-91
2022/01/05 05:09:06;;;;;;;13.73;2.03;;;3.80;99.90;;;;;;6264526;22;20016;-96
2022/01/05 05:11:32;;;;;;;16.48;2.25;;;3.70;99.90;;;;;;6236565;22;20023;-96
2022/01/05 05:13:57;;;;;;;12.85;2.10;;;3.60;99.90;;;;;;6242256;22;20095;-95
2022/01/05 05:16:23;;;;;;;11.82;2.22;;;3.70;99.90;;;;;;6233144;22;20027;-96
2022/01/05 05:18:49;;;;;;;13.07;1.98;;;3.80;99.90;;;;;;6260447;22;20486;-94
2022/01/05 05:21:15;;;;;;;9.88;1.70;;;3.80;99.90;;;;;;6258260;22;20016;-96
2022/01/05 05:23:40;;;;;;;8.93;2.28;;;3.80;99.90;;;;;;6259323;22;20023;-94
2022/01/05 05:26:07;;;;;;;12.07;2.60;;;3.80;99.90;;;;;;6260726;22;20031;-96
2022/01/05 05:28:32;;;;;;;9.60;1.73;;;3.80;99.90;;;;;;6207528;22;20125;-96
2022/01/05 05:31:01;;;;;;;12.18;2.13;;;3.90;99.90;;;;;;6263759;22;20020;-95
2022/01/05 05:33:29;;;;;;;9.68;1.92;;;3.90;99.90;;;;;;6235647;22;20047;-96
2022/01/05 05:35:55;;;;;;;11.52;1.90;;;3.90;99.90;;;;;;6258696;22;20016;-95
2022/01/05 05:38:20;;;;;;;11.80;2.38;;;4.00;99.90;;;;;;6262605;22;20018;-96
2022/01/05 05:40:46;;;;;;;12.30;2.63;;;4.00;99.90;;;;;;6233075;22;20663;-96
2022/01/05 05:43:12;;;;;;;10.52;2.08;;;4.10;99.90;;;;;;6261077;22;20012;-96
2022/01/05 05:45:38;;;;;;;14.15;2.30;;;4.10;99.90;;;;;;6238066;22;20019;-95
2022/01/05 05:48:04;;;;;;;13.98;1.95;;;4.20;99.90;;;;;;6263327;22;20031;-95
2022/01/05 05:50:33;;;;;;;13.77;2.78;;;4.20;99.90;;;;;;6263549;22;20012;-96
2022/01/05 05:52:59;;;;;;;12.35;2.50;;;4.20;99.90;;;;;;6272061;22;20344;-96
2022/01/05 05:55:28;;;;;;;9.70;2.08;;;4.30;99.90;;;;;;6269252;22;20015;-96
2022/01/05 05:57:54;;;;;;;10.50;2.05;;;4.30;99.90;;;;;;6270907;22;20042;-96
2022/01/05 06:00:21;;;;;;;11.80;2.22;;;4.30;99.90;;;;;;6273296;22;20021;-96
2022/01/05 06:02:47;;;;;;;12.60;2.58;;;4.30;99.90;;;;;;6264671;22;20019;-96
2022/01/05 06:05:13;;;;;;;13.60;2.92;;;4.40;99.90;;;;;;6264061;22;20011;-95
2022/01/05 06:07:39;;;;;;;11.43;2.10;;;4.40;99.90;;;;;;6265553;22;19999;-96
2022/01/05 06:10:05;;;;;;;11.73;2.92;;;4.50;99.90;;;;;;6265178;22;20399;-95
2022/01/05 06:12:30;;;;;;;16.20;2.67;;;4.60;99.90;;;;;;6290117;22;19999;-95
2022/01/05 06:14:56;;;;;;;12.23;1.98;;;4.70;99.90;;;;;;6291799;22;20021;-96
2022/01/05 06:17:22;;;;;;;11.85;2.67;;;4.70;99.90;;;;;;6262548;22;20015;-94
2022/01/05 06:19:48;;;;;;;13.98;2.20;;;4.70;99.90;;;;;;6287241;22;20015;-93
2022/01/05 06:22:14;;;;;;;7.50;1.80;;;4.70;99.90;;;;;;6256552;22;20023;-94
2022/01/05 06:24:44;;;;;;;10.77;1.95;;;4.60;99.90;;;;;;6257952;22;20486;-93
2022/01/05 06:27:11;;;;;;;10.75;1.95;;;4.60;99.90;;;;;;6262248;22;20015;-94
2022/01/05 06:29:38;;;;;;;10.32;1.80;;;4.60;99.90;;;;;;6270861;22;20066;-94
2022/01/05 06:32:04;;;;;;;12.95;2.20;;;4.50;99.90;;;;;;6280774;22;20003;-95
2022/01/05 06:34:30;;;;;;;14.00;2.13;;;4.50;99.90;;;;;;6298333;22;20011;-94
2022/01/05 06:36:56;;;;;;;13.50;2.10;;;4.40;99.90;;;;;;6305025;22;20007;-94
2022/01/05 06:39:24;;;;;;;11.05;2.38;;;4.40;99.90;;;;;;6277546;22;20019;-95
2022/01/05 06:41:50;;;;;;;14.63;2.13;;;4.40;99.90;;;;;;6291273;22;20057;-93
2022/01/05 06:44:16;;;;;;;12.40;1.83;;;4.40;99.90;;;;;;6260667;22;20094;-93
2022/01/05 06:46:42;;;;;;;14.35;2.60;;;4.40;99.90;;;;;;6255856;22;20015;-93
2022/01/05 06:49:10;;;;;;;9.18;1.95;;;4.40;99.90;;;;;;6283044;22;20018;-95
2022/01/05 06:51:35;;;;;;;10.55;1.92;;;4.40;99.90;;;;;;6256293;22;20098;-96
2022/01/05 06:54:01;;;;;;;10.82;2.30;;;4.40;99.90;;;;;;6256757;22;20003;-92
2022/01/05 06:56:39;;;;;;;11.68;1.92;;;4.40;99.90;;;;;;6257829;22;20022;-95
2022/01/05 06:59:05;;;;;;;10.48;2.13;;;4.40;99.90;;;;;;6257518;22;20019;-96
2022/01/05 07:01:30;;;;;;;12.82;2.35;;;4.40;99.90;;;;;;6264139;22;20316;-92
2022/01/05 07:03:56;;;;;;;12.35;2.65;;;4.40;99.90;;;;;;6262771;22;20015;-95
2022/01/05 07:06:25;;;;;;;11.63;2.20;;;4.40;99.90;;;;;;6263015;22;20094;-96
2022/01/05 07:08:51;;;;;;;10.02;2.33;;;4.40;99.90;;;;;;6259636;22;20003;-96
2022/01/05 07:11:20;;;;;;;13.43;1.92;;;4.40;99.90;;;;;;6260627;22;20039;-91
2022/01/05 07:13:46;;;;;;;9.98;1.70;;;4.40;99.90;;;;;;6262108;22;20015;-94
2022/01/05 07:16:12;;;;;;;9.25;1.48;;;4.40;99.90;;;;;;6256633;22;20042;-94
2022/01/05 07:18:37;;;;;;;8.40;1.42;;;4.30;99.90;;;;;;6284660;22;20015;-94
2022/01/05 07:21:03;;;;;;;9.38;1.30;;;4.30;99.90;;;;;;6283262;22;20093;-92
2022/01/05 07:23:28;;;;;;;6.78;1.60;;;4.30;99.90;;;;;;6257034;22;20335;-95
2022/01/05 07:25:58;;;;;;;7.00;1.77;;;4.30;99.90;;;;;;6280607;22;20076;-93
2022/01/05 07:28:24;;;;;;;6.75;1.25;;;4.20;99.90;;;;;;6255812;22;20014;-92
2022/01/05 07:30:49;;;;;;;8.55;1.42;;;4.10;99.90;;;;;;6256990;22;20042;-95
2022/01/05 07:33:15;;;;;;;8.63;1.55;;;4.00;99.90;;;;;;6256653;22;20011;-96
2022/01/05 07:35:41;;;;;;;7.05;1.10;;;4.00;99.90;;;;;;6256400;22;20019;-93
2022/01/05 07:38:07;;;;;;;9.75;1.40;;;3.90;99.90;;;;;;6255900;22;20018;-94
2022/01/05 07:40:37;;;;;;;5.68;1.42;;;3.90;99.90;;;;;;6282229;22;20011;-94
2022/01/05 07:43:06;;;;;;;5.65;1.10;;;3.90;99.90;;;;;;6261391;22;20050;-95
2022/01/05 07:45:37;;;;;;;9.75;1.80;;;3.90;99.90;;;;;;6286499;22;20026;-96
2022/01/05 07:48:04;;;;;;;6.97;1.30;;;4.00;99.90;;;;;;6267862;22;20336;-95
2022/01/05 07:50:30;;;;;;;7.93;1.63;;;3.90;99.90;;;;;;6268275;22;20313;-96
2022/01/05 07:53:00;;;;;;;10.32;2.30;;;3.90;99.90;;;;;;6267526;22;20060;-96
2022/01/05 07:55:34;;;;;;;8.23;1.42;;;3.90;99.90;;;;;;6269351;22;20022;-96
2022/01/05 07:58:00;;;;;;;9.30;1.83;;;4.00;99.90;;;;;;6260719;22;20015;-95
2022/01/05 08:00:26;;;;;;;10.13;1.77;;;4.00;99.90;;;;;;6292780;22;20386;-94
2022/01/05 08:02:51;;;;;;;9.80;1.90;;;4.00;99.90;;;;;;6259651;22;20011;-96
2022/01/05 08:05:17;;;;;;;11.38;1.70;;;4.10;99.90;;;;;;6263964;22;20022;-95
2022/01/05 08:07:43;;;;;;;13.02;2.00;;;4.10;99.90;;;;;;6288063;22;20033;-94
2022/01/05 08:10:09;;;;;;;9.23;2.13;;;4.20;99.90;;;;;;6255553;22;20043;-89
2022/01/05 08:12:34;;;;;;;12.95;2.28;;;4.20;99.90;;;;;;6251532;22;20046;-91
2022/01/05 08:15:00;;;;;;;9.77;1.55;;;4.30;99.90;;;;;;6250302;22;20407;-92
2022/01/05 08:17:26;;;;;;;11.82;2.17;;;4.40;99.90;;;;;;6251644;22;20014;-91
2022/01/05 08:19:52;;;;;;;11.73;2.15;;;4.50;99.90;;;;;;6251289;22;20348;-92
2022/01/05 08:22:18;;;;;;;14.65;2.55;;;4.60;99.90;;;;;;6252023;22;20346;-91
2022/01/05 08:24:44;;;;;;;13.60;3.05;;;4.70;99.90;;;;;;6250954;22;20011;-92
2022/01/05 08:27:09;;;;;;;17.40;3.53;;;4.80;99.90;;;;;;6277385;22;20012;-91
2022/01/05 08:29:35;;;;;;;12.52;3.03;;;4.90;99.90;;;;;;6250588;22;20021;-90
2022/01/05 08:32:02;;;;;;;17.42;3.03;;;5.00;99.90;;;;;;6251814;22;20440;-90
2022/01/05 08:34:30;;;;;;;17.73;3.47;;;5.00;99.90;;;;;;6251378;22;20060;-91
2022/01/05 08:36:56;;;;;;;13.93;2.42;;;5.20;99.90;;;;;;6252266;22;20339;-92
2022/01/05 08:39:23;;;;;;;11.88;2.13;;;5.20;99.90;;;;;;6252532;22;20096;-91
2022/01/05 08:41:52;;;;;;;10.82;1.75;;;5.20;99.90;;;;;;6251226;22;20016;-91
2022/01/05 08:44:18;;;;;;;9.18;1.88;;;5.20;99.90;;;;;;6251930;22;20036;-92
2022/01/05 08:46:43;;;;;;;11.32;1.95;;;5.20;99.90;;;;;;6251350;22;20019;-94
2022/01/05 08:49:10;;;;;;;9.88;1.65;;;5.20;99.90;;;;;;6252205;22;20344;-93
2022/01/05 08:51:39;;;;;;;10.93;1.75;;;5.20;99.90;;;;;;6258469;22;20019;-92
2022/01/05 08:54:06;;;;;;;9.95;1.60;;;5.20;99.90;;;;;;6221712;22;20030;-92
2022/01/05 08:56:32;;;;;;;8.70;1.80;;;5.20;99.90;;;;;;6220714;22;20019;-92
2022/01/05 08:58:58;;;;;;;8.82;1.88;;;5.20;99.90;;;;;;6221180;22;20008;-93
2022/01/05 09:01:25;;;;;;;9.82;1.85;;;5.20;99.90;;;;;;6248111;22;20011;-92
2022/01/05 09:03:52;;;;;;;8.43;2.65;;;5.30;99.90;;;;;;6226124;22;20099;-93
2022/01/05 09:06:22;;;;;;;9.65;1.75;;;5.30;99.90;;;;;;6227960;22;20023;-93
2022/01/05 09:08:48;;;;;;;11.73;2.05;;;5.40;99.90;;;;;;6236064;22;20010;-92
2022/01/05 09:11:15;;;;;;;10.48;2.10;;;5.50;99.90;;;;;;6245775;22;20019;-93
2022/01/05 09:13:42;;;;;;;9.20;1.77;;;5.60;99.90;;;;;;6227427;22;20060;-92
2022/01/05 09:16:07;;;;;;;10.98;1.90;;;5.60;99.90;;;;;;6250296;22;20023;-92
2022/01/05 09:18:33;;;;;;;11.10;2.15;;;5.70;99.90;;;;;;6262735;22;20011;-92
2022/01/05 09:20:59;;;;;;;10.90;1.65;;;5.80;99.90;;;;;;6225943;22;20008;-94
2022/01/05 09:23:25;;;;;;;8.55;1.63;;;5.90;99.90;;;;;;6222804;22;20047;-92
2022/01/05 09:25:52;;;;;;;10.90;2.08;;;5.90;99.90;;;;;;6246964;22;20411;-93
2022/01/05 09:28:17;;;;;;;12.65;2.08;;;6.00;99.90;;;;;;6221480;22;20016;-93
2022/01/05 09:30:45;;;;;;;10.55;1.95;;;6.00;99.90;;;;;;6246952;22;20069;-93
2022/01/05 09:33:14;;;;;;;10.82;2.25;;;6.00;99.90;;;;;;6247524;22;20348;-92
2022/01/05 09:35:41;;;;;;;9.75;1.80;;;6.00;99.90;;;;;;6220974;22;20016;-93
2022/01/05 09:38:11;;;;;;;13.20;2.75;;;6.00;99.90;;;;;;6222305;22;20012;-92
2022/01/05 09:43:24;;;;;;;14.45;2.40;;;6.10;99.90;;;;;;6246474;22;20062;-93
2022/01/05 09:46:07;;;;;;;12.18;2.53;;;6.10;99.90;;;;;;6221286;22;20325;-94
2022/01/05 09:49:01;;;;;;;15.15;2.33;;;6.20;99.90;;;;;;6247235;22;20086;-92
2022/01/05 09:51:31;;;;;;;15.52;2.67;;;6.10;99.90;;;;;;6248104;22;20012;-95
2022/01/05 09:53:59;;;;;;;13.13;3.20;;;6.00;99.90;;;;;;6221684;22;20020;-93
2022/01/05 09:56:25;;;;;;;16.23;3.03;;;6.00;99.90;;;;;;6221970;22;20019;-92
2022/01/05 09:58:52;;;;;;;17.63;3.15;;;6.10;99.90;;;;;;6221553;22;20022;-91
2022/01/05 10:01:18;;;;;;;13.10;2.95;;;6.10;99.90;;;;;;6223771;22;20069;-96
2022/01/05 10:03:43;;;;;;;18.20;4.18;;;6.20;99.90;;;;;;6221758;22;20050;-91
2022/01/05 10:06:12;;;;;;;12.90;2.58;;;6.20;99.90;;;;;;6247256;22;20016;-91
2022/01/05 10:08:37;;;;;;;18.42;3.42;;;6.20;99.90;;;;;;6220716;22;20030;-94
2022/01/05 10:11:08;;;;;;;14.02;3.05;;;6.30;99.90;;;;;;6246514;22;20086;-91
2022/01/05 10:13:33;;;;;;;17.30;3.80;;;6.30;99.90;;;;;;6220805;22;20050;-93
2022/01/05 10:15:59;;;;;;;17.00;3.53;;;6.30;99.90;;;;;;6224531;22;20012;-94
2022/01/05 10:18:25;;;;;;;15.55;3.15;;;6.40;99.90;;;;;;6221305;22;20014;-93
2022/01/05 10:21:02;;;;;;;17.77;3.78;;;6.40;99.90;;;;;;6222855;22;20016;-93
2022/01/05 10:23:33;;;;;;;15.00;3.05;;;6.50;99.90;;;;;;6221903;22;20060;-93
2022/01/05 10:26:18;;;;;;;;;;;6.60;99.90;;;;;;6220935;22;20015;-93
2022/01/05 10:28:47;;;;;;;17.25;3.92;;;6.60;99.90;;;;;;6217463;22;20356;-89
2022/01/05 10:31:15;;;;;;;18.50;3.70;;;6.70;99.90;;;;;;6222357;22;20032;-92
2022/01/05 10:33:40;;;;;;;17.20;3.45;;;6.80;99.90;;;;;;6221522;22;20528;-93
2022/01/05 10:36:06;;;;;;;18.67;3.55;;;6.80;99.90;;;;;;6223302;22;20055;-92
2022/01/05 10:38:32;;;;;;;13.40;3.20;;;6.90;99.90;;;;;;6219827;22;20019;-93
2022/01/05 10:40:57;;;;;;;15.55;2.92;;;7.00;99.90;;;;;;6222734;22;20436;-92
2022/01/05 10:43:23;;;;;;;22.15;3.85;;;7.10;99.90;;;;;;6227357;22;20011;-91
2022/01/05 10:45:51;;;;;;;15.05;3.50;;;7.00;99.90;;;;;;6245700;22;20015;-95
2022/01/05 10:48:19;;;;;;;16.40;3.15;;;7.10;99.90;;;;;;6221196;22;20018;-92
2022/01/05 10:50:50;;;;;;;16.13;3.35;;;7.10;99.90;;;;;;6221280;22;20019;-95
2022/01/05 10:53:21;;;;;;;15.82;2.83;;;7.10;99.90;;;;;;6227517;22;20019;-94
2022/01/05 10:55:47;;;;;;;13.88;3.03;;;7.00;99.90;;;;;;6224672;22;20016;-92
2022/01/05 10:58:16;;;;;;;14.30;2.72;;;7.00;99.90;;;;;;6224163;22;20023;-96
2022/01/05 11:00:50;;;;;;;14.75;3.22;;;7.10;99.90;;;;;;6226640;22;20019;-93
2022/01/05 11:03:43;;;;;;;19.67;3.45;;;7.10;99.90;;;;;;6227007;22;20012;-95
2022/01/05 11:06:15;;;;;;;16.40;3.28;;;7.10;99.90;;;;;;6226261;22;20023;-94
2022/01/05 11:09:00;;;;;;;14.77;2.95;;;7.20;99.90;;;;;;6224453;22;20050;-92
2022/01/05 11:11:56;;;;;;;13.00;2.53;;;7.20;99.90;;;;;;6225672;22;20015;-96
2022/01/05 11:14:34;;;;;;;17.30;3.17;;;7.20;99.90;;;;;;6204688;22;20011;-95
2022/01/05 11:17:03;;;;;;;17.23;3.65;;;7.30;99.90;;;;;;6230270;22;20015;-95
2022/01/05 11:19:39;;;;;;;14.00;3.17;;;7.30;99.90;;;;;;6251590;22;20018;-94
2022/01/05 11:22:10;;;;;;;15.32;3.08;;;7.40;99.90;;;;;;6233813;22;20422;-95
2022/01/05 11:24:48;;;;;;;14.98;3.42;;;7.40;99.90;;;;;;6229793;22;20043;-94
2022/01/05 11:27:27;;;;;;;13.48;2.75;;;7.50;99.90;;;;;;6225472;22;20024;-96
2022/01/05 11:29:54;;;;;;;15.88;3.75;;;7.50;99.90;;;;;;6223786;22;20008;-96
2022/01/05 11:32:23;;;;;;;12.60;2.67;;;7.50;99.90;;;;;;6223904;22;20019;-92
2022/01/05 11:34:50;;;;;;;14.35;2.78;;;7.50;99.90;;;;;;6223956;22;20022;-90
2022/01/05 11:37:16;;;;;;;13.45;2.70;;;7.50;99.90;;;;;;6223326;22;20067;-96
2022/01/05 11:39:47;;;;;;;11.90;2.92;;;7.60;99.90;;;;;;6250817;22;20038;-93
2022/01/05 11:42:17;;;;;;;12.82;3.03;;;7.60;99.90;;;;;;6252341;22;20026;-96
2022/01/05 11:44:51;;;;;;;13.38;2.38;;;7.70;99.90;;;;;;6258201;22;20016;-94
2022/01/05 11:47:40;;;;;;;9.52;2.20;;;7.70;99.90;;;;;;6251693;22;20015;-96
2022/01/05 11:50:26;;;;;;;12.98;2.25;;;7.70;99.90;;;;;;6239115;22;20014;-94
2022/01/05 11:53:04;;;;;;;10.93;1.98;;;7.70;99.90;;;;;;6281204;22;20007;-93
2022/01/05 11:55:58;;;;;;;12.45;2.28;;;7.70;99.90;;;;;;6266274;22;20015;-94
2022/01/05 11:58:25;;;;;;;10.60;2.20;;;7.70;99.90;;;;;;6261147;22;20015;-95
2022/01/05 12:01:17;;;;;;;12.77;2.40;;;7.70;99.90;;;;;;6260164;22;20026;-95
2022/01/05 12:03:58;;;;;;;15.48;2.95;;;7.80;99.90;;;;;;6279298;22;20224;-96
2022/01/05 12:06:23;;;;;;;12.03;2.90;;;7.70;99.90;;;;;;6255408;22;20214;-90
2022/01/05 12:08:51;;;;;;;10.25;2.22;;;7.70;99.90;;;;;;6281054;22;20285;-96
2022/01/05 12:11:38;;;;;;;10.75;2.28;;;7.50;99.90;;;;;;6259256;22;20034;-92
2022/01/05 12:14:22;;;;;;;13.32;2.10;;;7.40;99.90;;;;;;6288792;22;20026;-95
2022/01/05 12:17:00;;;;;;;8.70;1.73;;;7.40;99.90;;;;;;6261588;22;20037;-96
2022/01/05 12:19:28;;;;;;;7.97;1.55;;;7.40;99.90;;;;;;6263387;22;20019;-94
2022/01/05 12:21:56;;;;;;;7.72;1.63;;;7.40;99.90;;;;;;6265512;22;20251;-94
2022/01/05 12:24:42;;;;;;;8.40;1.52;;;7.40;99.90;;;;;;6259393;22;20019;-95
2022/01/05 12:27:25;;;;;;;9.85;1.92;;;7.40;99.90;;;;;;6290785;22;20053;-93
2022/01/05 12:29:51;;;;;;;13.27;1.77;;;7.40;99.90;;;;;;6257291;22;20021;-94
2022/01/05 12:32:46;;;;;;;12.63;2.20;;;7.40;99.90;;;;;;6279830;22;20076;-95
2022/01/05 12:35:15;;;;;;;11.00;2.40;;;7.50;99.90;;;;;;6254418;22;20076;-96
2022/01/05 12:38:04;;;;;;;11.93;2.13;;;7.40;99.90;;;;;;6259499;22;20141;-93
2022/01/05 12:40:48;;;;;;;18.42;3.60;;;7.50;99.90;;;;;;6268182;22;20097;-96
2022/01/05 12:43:14;;;;;;;11.40;2.40;;;7.50;99.90;;;;;;6268430;22;20023;-95
2022/01/05 12:46:10;;;;;;;12.55;2.85;;;7.60;99.90;;;;;;6267410;22;20102;-95
2022/01/05 12:48:36;;;;;;;14.80;2.47;;;7.60;99.90;;;;;;6285887;22;20051;-91
2022/01/05 12:51:14;;;;;;;12.43;2.95;;;7.60;99.90;;;;;;6253490;22;20455;-96
2022/01/05 12:54:10;;;;;;;14.43;3.05;;;7.70;99.90;;;;;;6197192;23;20351;31
2022/01/05 12:56:40;;;;;;;15.60;2.85;;;7.70;99.90;;;;;;6178582;22;20019;-94
2022/01/05 12:59:08;;;;;;;13.82;2.67;;;7.70;99.90;;;;;;6236326;22;20047;-96
2022/01/05 13:01:33;;;;;;;15.07;3.00;;;7.80;99.90;;;;;;6264481;22;20016;-96
2022/01/05 13:04:01;;;;;;;14.15;3.28;;;7.70;99.90;;;;;;6236760;22;20016;-91